Honghai — XUBU8 — position and weather

sailwx.info

Track history (hours):
 
Tides and Currents Weather Stations Pressure Air Temp Water Temp Dewpoint Dewpoint Depression Visibility Wind Speed Wind Dir Waves Ship Positions

Honghai

Last reported at 2016-Jul-25 13:06 UTC. Time now 2016-Jul-29 04:05 UTC.
Position N 35°06' E 139°41'.

Length 72 m; draft 4 m.

Type: Cargo ship. MMSI: 515501000.

Date/timePositionNaut miles runAvg speedWind from/ knotsBaromVisibWave heightAir tempDewpointWater temp
2016-Jul-25 13:06N 35°06' E 139°41'4 7.7
2016-Jul-25 12:32N 35°09' E 139°44'8 8.3
2016-Jul-25 11:33N 35°17' E 139°45'8 7.9
2016-Jul-25 10:33N 35°25' E 139°45'9 8.7
2016-Jul-25 09:33N 35°31' E 139°53'8 8.1
2016-Jul-25 08:33N 35°37' E 139°59'3 3.0
2016-Jul-25 07:24N 35°41' E 139°59'0 0.0
2016-Jul-25 06:30N 35°41' E 139°59'0 0.0
2016-Jul-25 05:24N 35°41' E 139°59'0 0.0
2016-Jul-25 04:30N 35°41' E 139°59'0 0.0
2016-Jul-25 03:30N 35°41' E 139°59'0 0.0
2016-Jul-25 02:30N 35°41' E 139°59'0 0.0
2016-Jul-25 01:30N 35°41' E 139°59'0 0.0
2016-Jul-25 00:30N 35°41' E 139°59'0 0.0
2016-Jul-24 23:30N 35°41' E 139°59'0 0.0
2016-Jul-24 22:24N 35°41' E 139°59'0 0.0
2016-Jul-24 21:24N 35°41' E 139°59'0 0.0
2016-Jul-24 20:24N 35°41' E 139°59'0 0.0
2016-Jul-24 19:24N 35°41' E 139°59'0 0.0
2016-Jul-24 18:24N 35°41' E 139°59'0 0.0
2016-Jul-24 17:30N 35°41' E 139°59'0 0.0
2016-Jul-24 16:18N 35°41' E 139°59'0 0.0
2016-Jul-24 15:30N 35°41' E 139°59'0 0.0
2016-Jul-24 14:30N 35°41' E 139°59'0 0.0
2016-Jul-24 13:30N 35°41' E 139°59'0 0.0
2016-Jul-24 12:24N 35°41' E 139°59'0 0.0
2016-Jul-24 11:24N 35°41' E 139°59'0 0.0
2016-Jul-24 10:30N 35°41' E 139°59'0 0.0
2016-Jul-24 09:30N 35°41' E 139°59'0 0.0
2016-Jul-24 08:30N 35°41' E 139°59'0 0.0
2016-Jul-24 07:30N 35°41' E 139°59'0 0.0
2016-Jul-24 06:30N 35°41' E 139°59'0 0.0
2016-Jul-24 05:30N 35°41' E 139°59'0 0.0
2016-Jul-24 04:30N 35°41' E 139°59'0 0.0
2016-Jul-24 03:30N 35°41' E 139°59'0 0.0
2016-Jul-24 02:24N 35°41' E 139°59'0 0.0
2016-Jul-24 01:29N 35°41' E 139°59'0 0.0
2016-Jul-24 00:29N 35°41' E 139°59'0 0.0
2016-Jul-23 23:23N 35°41' E 139°59'0 0.0
2016-Jul-23 22:29N 35°41' E 139°59'0 0.0
2016-Jul-23 21:29N 35°41' E 139°59'0 0.0
2016-Jul-23 20:29N 35°41' E 139°59'0 0.0
2016-Jul-23 19:29N 35°41' E 139°59'0 0.0
2016-Jul-23 18:11N 35°41' E 139°59'0 0.0
2016-Jul-23 17:17N 35°41' E 139°59'0 0.0
2016-Jul-23 16:29N 35°41' E 139°59'0 0.0
2016-Jul-23 15:29N 35°41' E 139°59'0 0.0
2016-Jul-23 14:29N 35°41' E 139°59'0 0.0
2016-Jul-23 13:29N 35°41' E 139°59'0 0.0
2016-Jul-23 12:17N 35°41' E 139°59'0 0.0
2016-Jul-23 11:29N 35°41' E 139°59'0 0.0
2016-Jul-23 10:23N 35°41' E 139°59'0 0.0
2016-Jul-23 09:17N 35°41' E 139°59'0 0.0
2016-Jul-23 08:29N 35°41' E 139°59'0 0.0
2016-Jul-23 07:23N 35°41' E 139°59'0 0.0
2016-Jul-23 06:23N 35°41' E 139°59'0 0.0
2016-Jul-23 04:29N 35°41' E 139°59'0 0.0
2016-Jul-23 03:23N 35°41' E 139°59'0 0.0
2016-Jul-23 02:29N 35°41' E 139°59'0 0.0
2016-Jul-23 01:23N 35°41' E 139°59'0 0.0
2016-Jul-23 00:23N 35°41' E 139°59'0 0.0
2016-Jul-22 23:23N 35°41' E 139°59'0 0.0
2016-Jul-22 22:29N 35°41' E 139°59'0 0.0
2016-Jul-22 21:29N 35°41' E 139°59'4 4.1
2016-Jul-22 20:33N 35°37' E 139°58'1 0.6
2016-Jul-22 19:13N 35°36' E 139°58'0 0.0
2016-Jul-22 18:25N 35°36' E 139°58'0 0.0
2016-Jul-22 17:25N 35°36' E 139°58'0 0.0
2016-Jul-22 16:07N 35°36' E 139°58'0 0.0
2016-Jul-22 15:25N 35°36' E 139°58'0 0.0
2016-Jul-22 14:13N 35°36' E 139°58'0 0.0
2016-Jul-22 13:31N 35°36' E 139°58'0 0.0
2016-Jul-22 12:19N 35°36' E 139°58'0 0.0
2016-Jul-22 11:31N 35°36' E 139°58'0 0.0
2016-Jul-22 10:31N 35°36' E 139°58'0 0.0
2016-Jul-22 09:31N 35°36' E 139°58'0 0.0
2016-Jul-22 08:13N 35°36' E 139°58'0 0.0
2016-Jul-22 07:31N 35°36' E 139°58'0 0.0
2016-Jul-22 04:30N 35°36' E 139°58'0 0.0
2016-Jul-22 03:30N 35°36' E 139°58'0 0.0
2016-Jul-22 02:30N 35°36' E 139°58'0 0.0
2016-Jul-22 01:18N 35°36' E 139°58'0 0.0
2016-Jul-22 00:30N 35°36' E 139°58'0 0.0
2016-Jul-21 23:30N 35°36' E 139°58'0 0.0
2016-Jul-21 22:30N 35°36' E 139°58'0 0.0
2016-Jul-21 21:30N 35°36' E 139°58'0 0.0
2016-Jul-21 20:30N 35°36' E 139°58'0 0.0
2016-Jul-21 19:30N 35°36' E 139°58'0 0.0
2016-Jul-21 18:24N 35°36' E 139°58'0 0.1
2016-Jul-21 17:30N 35°36' E 139°58'0 0.0
2016-Jul-21 16:30N 35°36' E 139°58'0 0.0
2016-Jul-21 15:30N 35°36' E 139°58'0 0.0
2016-Jul-21 14:30N 35°36' E 139°58'0 0.0
2016-Jul-21 13:30N 35°36' E 139°58'0 0.0
2016-Jul-21 12:30N 35°36' E 139°58'0 0.0
2016-Jul-21 11:12N 35°36' E 139°58'0 0.0
2016-Jul-21 10:18N 35°36' E 139°58'0 0.0
2016-Jul-21 09:18N 35°36' E 139°58'0 0.0
2016-Jul-21 08:30N 35°36' E 139°58'0 0.0
2016-Jul-21 07:24N 35°36' E 139°58'0 0.0
2016-Jul-21 06:30N 35°36' E 139°58'0 0.0
2016-Jul-21 05:30N 35°36' E 139°58'0 0.0
2016-Jul-21 04:30N 35°36' E 139°58'0 0.0
2016-Jul-21 03:24N 35°36' E 139°58'0 0.0
2016-Jul-21 02:24N 35°36' E 139°58'0 0.0
2016-Jul-21 01:24N 35°36' E 139°58'0 0.0
2016-Jul-21 00:30N 35°36' E 139°58'0 0.0
2016-Jul-20 22:24N 35°36' E 139°58'0 0.0
2016-Jul-20 21:18N 35°36' E 139°58'0 0.0
2016-Jul-20 20:18N 35°36' E 139°58'0 0.0
2016-Jul-20 19:30N 35°36' E 139°58'0 0.0
2016-Jul-20 18:30N 35°36' E 139°58'0 0.0
2016-Jul-20 17:30N 35°36' E 139°58'0 0.1
2016-Jul-20 16:33N 35°36' E 139°58'6 6.4
2016-Jul-20 15:33N 35°31' E 139°54'10 9.5
2016-Jul-20 14:33N 35°24' E 139°46'9 8.8
2016-Jul-20 13:33N 35°15' E 139°47'35 5.0
2016-Jul-20 06:29N 35°15' E 140°30'  
2016-Jul-16 14:32N 35°26' E 140°40'34 8.5
2016-Jul-16 10:33N 35°02' E 140°12'9 8.5
2016-Jul-16 09:33N 34°57' E 140°03'  
Track history (hours):
 
Tides and Currents Weather Stations Pressure Air Temp Water Temp Dewpoint Dewpoint Depression Visibility Wind Speed Wind Dir Waves Ship Positions

Honghai

Last reported at 2016-Jul-25 13:06 UTC. Time now 2016-Jul-29 04:05 UTC.
Position N 35°06' E 139°41'.

Length 72 m; draft 4 m.

Type: Cargo ship. MMSI: 515501000.

Date/timePositionNaut miles runAvg speedWind from/ knotsBaromVisibWave heightAir tempDewpointWater temp
2016-Jul-25 13:06N 35°06' E 139°41'4 7.7
2016-Jul-25 12:32N 35°09' E 139°44'8 8.3
2016-Jul-25 11:33N 35°17' E 139°45'8 7.9
2016-Jul-25 10:33N 35°25' E 139°45'9 8.7
2016-Jul-25 09:33N 35°31' E 139°53'8 8.1
2016-Jul-25 08:33N 35°37' E 139°59'3 3.0
2016-Jul-25 07:24N 35°41' E 139°59'0 0.0
2016-Jul-25 06:30N 35°41' E 139°59'0 0.0
2016-Jul-25 05:24N 35°41' E 139°59'0 0.0
2016-Jul-25 04:30N 35°41' E 139°59'0 0.0
2016-Jul-25 03:30N 35°41' E 139°59'0 0.0
2016-Jul-25 02:30N 35°41' E 139°59'0 0.0
2016-Jul-25 01:30N 35°41' E 139°59'0 0.0
2016-Jul-25 00:30N 35°41' E 139°59'0 0.0
2016-Jul-24 23:30N 35°41' E 139°59'0 0.0
2016-Jul-24 22:24N 35°41' E 139°59'0 0.0
2016-Jul-24 21:24N 35°41' E 139°59'0 0.0
2016-Jul-24 20:24N 35°41' E 139°59'0 0.0
2016-Jul-24 19:24N 35°41' E 139°59'0 0.0
2016-Jul-24 18:24N 35°41' E 139°59'0 0.0
2016-Jul-24 17:30N 35°41' E 139°59'0 0.0
2016-Jul-24 16:18N 35°41' E 139°59'0 0.0
2016-Jul-24 15:30N 35°41' E 139°59'0 0.0
2016-Jul-24 14:30N 35°41' E 139°59'0 0.0
2016-Jul-24 13:30N 35°41' E 139°59'0 0.0
2016-Jul-24 12:24N 35°41' E 139°59'0 0.0
2016-Jul-24 11:24N 35°41' E 139°59'0 0.0
2016-Jul-24 10:30N 35°41' E 139°59'0 0.0
2016-Jul-24 09:30N 35°41' E 139°59'0 0.0
2016-Jul-24 08:30N 35°41' E 139°59'0 0.0
2016-Jul-24 07:30N 35°41' E 139°59'0 0.0
2016-Jul-24 06:30N 35°41' E 139°59'0 0.0
2016-Jul-24 05:30N 35°41' E 139°59'0 0.0
2016-Jul-24 04:30N 35°41' E 139°59'0 0.0
2016-Jul-24 03:30N 35°41' E 139°59'0 0.0
2016-Jul-24 02:24N 35°41' E 139°59'0 0.0
2016-Jul-24 01:29N 35°41' E 139°59'0 0.0
2016-Jul-24 00:29N 35°41' E 139°59'0 0.0
2016-Jul-23 23:23N 35°41' E 139°59'0 0.0
2016-Jul-23 22:29N 35°41' E 139°59'0 0.0
2016-Jul-23 21:29N 35°41' E 139°59'0 0.0
2016-Jul-23 20:29N 35°41' E 139°59'0 0.0
2016-Jul-23 19:29N 35°41' E 139°59'0 0.0
2016-Jul-23 18:11N 35°41' E 139°59'0 0.0
2016-Jul-23 17:17N 35°41' E 139°59'0 0.0
2016-Jul-23 16:29N 35°41' E 139°59'0 0.0
2016-Jul-23 15:29N 35°41' E 139°59'0 0.0
2016-Jul-23 14:29N 35°41' E 139°59'0 0.0
2016-Jul-23 13:29N 35°41' E 139°59'0 0.0
2016-Jul-23 12:17N 35°41' E 139°59'0 0.0
2016-Jul-23 11:29N 35°41' E 139°59'0 0.0
2016-Jul-23 10:23N 35°41' E 139°59'0 0.0
2016-Jul-23 09:17N 35°41' E 139°59'0 0.0
2016-Jul-23 08:29N 35°41' E 139°59'0 0.0
2016-Jul-23 07:23N 35°41' E 139°59'0 0.0
2016-Jul-23 06:23N 35°41' E 139°59'0 0.0
2016-Jul-23 04:29N 35°41' E 139°59'0 0.0
2016-Jul-23 03:23N 35°41' E 139°59'0 0.0
2016-Jul-23 02:29N 35°41' E 139°59'0 0.0
2016-Jul-23 01:23N 35°41' E 139°59'0 0.0
2016-Jul-23 00:23N 35°41' E 139°59'0 0.0
2016-Jul-22 23:23N 35°41' E 139°59'0 0.0
2016-Jul-22 22:29N 35°41' E 139°59'0 0.0
2016-Jul-22 21:29N 35°41' E 139°59'4 4.1
2016-Jul-22 20:33N 35°37' E 139°58'1 0.6
2016-Jul-22 19:13N 35°36' E 139°58'0 0.0
2016-Jul-22 18:25N 35°36' E 139°58'0 0.0
2016-Jul-22 17:25N 35°36' E 139°58'0 0.0
2016-Jul-22 16:07N 35°36' E 139°58'0 0.0
2016-Jul-22 15:25N 35°36' E 139°58'0 0.0
2016-Jul-22 14:13N 35°36' E 139°58'0 0.0
2016-Jul-22 13:31N 35°36' E 139°58'0 0.0
2016-Jul-22 12:19N 35°36' E 139°58'0 0.0
2016-Jul-22 11:31N 35°36' E 139°58'0 0.0
2016-Jul-22 10:31N 35°36' E 139°58'0 0.0
2016-Jul-22 09:31N 35°36' E 139°58'0 0.0
2016-Jul-22 08:13N 35°36' E 139°58'0 0.0
2016-Jul-22 07:31N 35°36' E 139°58'0 0.0
2016-Jul-22 04:30N 35°36' E 139°58'0 0.0
2016-Jul-22 03:30N 35°36' E 139°58'0 0.0
2016-Jul-22 02:30N 35°36' E 139°58'0 0.0
2016-Jul-22 01:18N 35°36' E 139°58'0 0.0
2016-Jul-22 00:30N 35°36' E 139°58'0 0.0
2016-Jul-21 23:30N 35°36' E 139°58'0 0.0
2016-Jul-21 22:30N 35°36' E 139°58'0 0.0
2016-Jul-21 21:30N 35°36' E 139°58'0 0.0
2016-Jul-21 20:30N 35°36' E 139°58'0 0.0
2016-Jul-21 19:30N 35°36' E 139°58'0 0.0
2016-Jul-21 18:24N 35°36' E 139°58'0 0.1
2016-Jul-21 17:30N 35°36' E 139°58'0 0.0
2016-Jul-21 16:30N 35°36' E 139°58'0 0.0
2016-Jul-21 15:30N 35°36' E 139°58'0 0.0
2016-Jul-21 14:30N 35°36' E 139°58'0 0.0
2016-Jul-21 13:30N 35°36' E 139°58'0 0.0
2016-Jul-21 12:30N 35°36' E 139°58'0 0.0
2016-Jul-21 11:12N 35°36' E 139°58'0 0.0
2016-Jul-21 10:18N 35°36' E 139°58'0 0.0
2016-Jul-21 09:18N 35°36' E 139°58'0 0.0
2016-Jul-21 08:30N 35°36' E 139°58'0 0.0
2016-Jul-21 07:24N 35°36' E 139°58'0 0.0
2016-Jul-21 06:30N 35°36' E 139°58'0 0.0
2016-Jul-21 05:30N 35°36' E 139°58'0 0.0
2016-Jul-21 04:30N 35°36' E 139°58'0 0.0
2016-Jul-21 03:24N 35°36' E 139°58'0 0.0
2016-Jul-21 02:24N 35°36' E 139°58'0 0.0
2016-Jul-21 01:24N 35°36' E 139°58'0 0.0
2016-Jul-21 00:30N 35°36' E 139°58'0 0.0
2016-Jul-20 22:24N 35°36' E 139°58'0 0.0
2016-Jul-20 21:18N 35°36' E 139°58'0 0.0
2016-Jul-20 20:18N 35°36' E 139°58'0 0.0
2016-Jul-20 19:30N 35°36' E 139°58'0 0.0
2016-Jul-20 18:30N 35°36' E 139°58'0 0.0
2016-Jul-20 17:30N 35°36' E 139°58'0 0.1
2016-Jul-20 16:33N 35°36' E 139°58'6 6.4
2016-Jul-20 15:33N 35°31' E 139°54'10 9.5
2016-Jul-20 14:33N 35°24' E 139°46'9 8.8
2016-Jul-20 13:33N 35°15' E 139°47'35 5.0
2016-Jul-20 06:29N 35°15' E 140°30'  
2016-Jul-16 14:32N 35°26' E 140°40'34 8.5
2016-Jul-16 10:33N 35°02' E 140°12'9 8.5
2016-Jul-16 09:33N 34°57' E 140°03'  

Dump ship's entire track history